createdAt,value
2023-05-04T00:31:50.671Z,59.60
2023-05-04T00:34:20.180Z,60.20
2023-05-04T00:36:49.550Z,58.80
2023-05-04T00:39:19.656Z,58.70
2023-05-04T00:41:49.465Z,58.80
2023-05-04T00:44:18.843Z,58.60
2023-05-04T00:46:49.317Z,58.90
2023-05-04T00:49:18.807Z,57.70
2023-05-04T00:51:49.185Z,57.30
2023-05-04T00:54:22.028Z,58.00
2023-05-04T00:56:51.461Z,57.90
2023-05-04T00:59:20.853Z,57.40
2023-05-04T01:01:50.345Z,57.10
2023-05-04T01:04:20.274Z,57.20
2023-05-04T01:07:03.040Z,57.80
2023-05-04T01:09:32.395Z,57.70
2023-05-04T01:12:07.840Z,56.70
2023-05-04T01:14:38.369Z,56.70
2023-05-04T01:17:09.733Z,56.80
2023-05-04T01:19:39.249Z,56.20
2023-05-04T01:22:08.756Z,54.80
2023-05-04T01:24:38.288Z,55.30
2023-05-04T01:27:25.678Z,55.40
2023-05-04T07:22:06.987Z,63.30
2023-05-04T07:24:36.348Z,63.60
2023-05-04T07:27:05.716Z,64.00
2023-05-04T07:29:35.325Z,64.40
2023-05-04T07:32:04.844Z,64.70
2023-05-04T07:34:45.085Z,65.10
2023-05-04T07:37:15.987Z,65.40
2023-05-04T07:39:45.683Z,65.80
2023-05-04T07:42:15.114Z,65.90
2023-05-04T07:44:44.551Z,66.10
2023-05-04T07:47:14.086Z,66.50
2023-05-04T07:49:47.685Z,66.80
2023-05-04T07:52:17.326Z,66.80
2023-05-04T07:54:46.799Z,67.10
2023-05-04T07:57:16.769Z,67.40
2023-05-04T07:59:46.223Z,67.50
2023-05-04T08:02:15.793Z,67.60
2023-05-04T08:04:45.274Z,67.80
2023-05-04T08:07:17.119Z,67.70
2023-05-04T08:09:46.507Z,67.60
2023-05-04T08:12:16.138Z,67.60
2023-05-04T08:14:48.687Z,67.80
2023-05-04T08:17:18.075Z,67.80
2023-05-04T08:19:47.447Z,67.80
2023-05-04T09:05:40.086Z,69.30
2023-05-04T09:08:09.834Z,69.20
2023-05-04T09:10:39.342Z,69.30
2023-05-04T09:13:09.021Z,69.30
2023-05-04T09:15:38.410Z,69.40
2023-05-04T09:18:08.532Z,69.30
2023-05-04T09:20:48.463Z,69.20
2023-05-04T09:23:19.390Z,69.40
2023-05-04T09:25:52.634Z,69.50
2023-05-04T09:28:23.201Z,69.80
2023-05-04T09:30:56.117Z,69.60
2023-05-04T09:33:32.506Z,69.70
2023-05-04T09:36:02.704Z,69.90
2023-05-04T09:38:36.356Z,69.90
2023-05-04T09:41:05.751Z,69.70
2023-05-04T09:43:43.098Z,69.80
2023-05-04T09:46:21.974Z,69.90
2023-05-04T09:48:55.554Z,70.30
2023-05-04T09:51:26.232Z,70.30
2023-05-04T09:53:56.527Z,70.50
2023-05-04T09:56:28.034Z,70.60
2023-05-04T09:59:01.997Z,70.60
2023-05-04T10:01:32.186Z,70.70
2023-05-04T22:37:06.579Z,85.90
2023-05-04T22:39:36.997Z,85.60
2023-05-04T22:42:06.782Z,85.30
2023-05-04T22:44:36.383Z,84.90
2023-05-04T22:47:06.216Z,84.70
2023-05-04T22:49:36.846Z,84.40
2023-05-04T22:52:07.136Z,84.20
2023-05-04T22:54:36.543Z,83.80
2023-05-04T22:57:06.383Z,83.40
2023-05-04T22:59:35.902Z,83.40
2023-05-04T23:02:05.955Z,83.40
2023-05-04T23:04:35.778Z,83.60
2023-05-04T23:07:05.267Z,83.60
2023-05-04T23:09:34.856Z,83.80
2023-05-04T23:12:04.232Z,83.70
2023-05-04T23:14:33.597Z,83.70
2023-05-04T23:17:03.591Z,83.90
2023-05-04T23:19:33.541Z,84.20
2023-05-04T23:22:02.947Z,84.50
2023-05-04T23:24:32.342Z,84.30
2023-05-04T23:27:01.679Z,84.00
2023-05-04T23:29:31.037Z,84.10
2023-05-04T23:32:00.543Z,84.20
2023-05-04T23:34:29.973Z,84.10
